Time;durP1;ratioP1;P1;durP2;ratioP2;P2;SDS_P1;SDS_P2;PMS_P1;PMS_P2;Temp;Humidity;BMP_temperature;BMP_pressure;BME280_temperature;BME280_humidity;BME280_pressure;Samples;Min_cycle;Max_cycle;Signal;HPM_P1;HPM_P2
2024/03/30 00:01:49;;;;;;;2.80;0.88;;;;;;;;;;5018313;28;20436;-66
2024/03/30 00:04:15;;;;;;;1.17;0.80;;;;;;;;;;5018531;28;20105;-66
2024/03/30 00:06:41;;;;;;;1.00;0.90;;;;;;;;;;5013469;28;20608;-66
2024/03/30 00:09:07;;;;;;;1.95;1.00;;;;;;;;;;5005212;28;20098;-66
2024/03/30 00:11:33;;;;;;;0.80;0.70;;;;;;;;;;5011732;28;20192;-67
2024/03/30 00:13:59;;;;;;;1.25;0.70;;;;;;;;;;5013329;28;20065;-67
2024/03/30 00:16:25;;;;;;;1.55;0.88;;;;;;;;;;5018266;28;20457;-67
2024/03/30 00:18:53;;;;;;;1.48;0.80;;;;;;;;;;5010074;28;20032;-67
2024/03/30 00:21:19;;;;;;;3.25;0.95;;;;;;;;;;5018436;28;20071;-67
2024/03/30 00:23:45;;;;;;;0.95;0.68;;;;;;;;;;5020095;28;20365;-67
2024/03/30 00:26:10;;;;;;;0.60;0.50;;;;;;;;;;5012918;28;20030;-67
2024/03/30 00:28:36;;;;;;;1.80;0.65;;;;;;;;;;5011364;28;20184;-67
2024/03/30 00:31:02;;;;;;;0.65;0.65;;;;;;;;;;5009225;28;20029;-68
2024/03/30 00:33:28;;;;;;;1.02;0.60;;;;;;;;;;5012352;28;20045;-67
2024/03/30 00:35:55;;;;;;;0.90;0.57;;;;;;;;;;5013723;28;20192;-67
2024/03/30 00:38:21;;;;;;;1.40;1.00;;;;;;;;;;5011109;28;20323;-67
2024/03/30 00:40:47;;;;;;;0.82;0.70;;;;;;;;;;5020339;28;20477;-67
2024/03/30 00:43:13;;;;;;;0.60;0.57;;;;;;;;;;5015520;28;20501;-67
2024/03/30 00:45:39;;;;;;;1.65;0.68;;;;;;;;;;5016506;28;20029;-67
2024/03/30 00:48:06;;;;;;;1.98;0.60;;;;;;;;;;5020467;28;20449;-68
2024/03/30 00:50:32;;;;;;;1.90;0.70;;;;;;;;;;5015756;28;20084;-67
2024/03/30 00:52:58;;;;;;;1.38;0.70;;;;;;;;;;5008934;28;20117;-67
2024/03/30 00:55:24;;;;;;;1.88;0.80;;;;;;;;;;5012492;28;20021;-67
2024/03/30 00:57:50;;;;;;;1.20;0.73;;;;;;;;;;5010017;28;20181;-66
2024/03/30 01:00:16;;;;;;;0.73;0.60;;;;;;;;;;5014359;28;20087;-67
2024/03/30 01:02:42;;;;;;;0.98;0.70;;;;;;;;;;5015168;28;20063;-67
2024/03/30 01:05:08;;;;;;;1.33;0.68;;;;;;;;;;5018997;28;20428;-67
2024/03/30 01:07:35;;;;;;;0.50;0.43;;;;;;;;;;5013759;28;20088;-67
2024/03/30 01:10:03;;;;;;;1.50;0.70;;;;;;;;;;5014238;28;20174;-67
2024/03/30 01:12:29;;;;;;;0.47;0.40;;;;;;;;;;5016101;28;20034;-68
2024/03/30 01:14:55;;;;;;;0.65;0.65;;;;;;;;;;5023480;28;20105;-67
2024/03/30 01:17:22;;;;;;;0.70;0.60;;;;;;;;;;5023130;28;20117;-67
2024/03/30 01:19:48;;;;;;;0.93;0.60;;;;;;;;;;5018264;28;20025;-67
2024/03/30 01:22:14;;;;;;;0.80;0.65;;;;;;;;;;5023187;28;20037;-67
2024/03/30 01:24:40;;;;;;;1.55;0.77;;;;;;;;;;5018426;28;20036;-67
2024/03/30 01:27:08;;;;;;;0.82;0.50;;;;;;;;;;5018783;28;20034;-67
2024/03/30 01:29:35;;;;;;;0.60;0.60;;;;;;;;;;5021732;28;20203;-67
2024/03/30 01:32:01;;;;;;;0.52;0.52;;;;;;;;;;5019483;28;20037;-68
2024/03/30 01:34:27;;;;;;;1.30;0.88;;;;;;;;;;5017227;28;20113;-68
2024/03/30 01:36:53;;;;;;;1.05;0.70;;;;;;;;;;5014455;28;20037;-67
2024/03/30 01:39:20;;;;;;;1.33;0.82;;;;;;;;;;5018393;28;20034;-67
2024/03/30 01:41:46;;;;;;;0.80;0.70;;;;;;;;;;5013189;28;20061;-67
2024/03/30 01:44:12;;;;;;;1.08;0.77;;;;;;;;;;5012241;28;20106;-67
2024/03/30 01:46:38;;;;;;;0.70;0.60;;;;;;;;;;5015486;28;20086;-67
2024/03/30 01:49:05;;;;;;;0.80;0.50;;;;;;;;;;5010269;28;20057;-67
2024/03/30 01:51:31;;;;;;;0.95;0.60;;;;;;;;;;5014839;28;20435;-66
2024/03/30 01:53:58;;;;;;;0.80;0.63;;;;;;;;;;5011318;28;20052;-68
2024/03/30 01:56:23;;;;;;;0.90;0.80;;;;;;;;;;5016878;28;20513;-67
2024/03/30 01:58:49;;;;;;;1.38;0.65;;;;;;;;;;5017217;28;20034;-67
2024/03/30 02:01:16;;;;;;;0.93;0.70;;;;;;;;;;5019403;28;20034;-67
2024/03/30 02:03:42;;;;;;;1.13;0.57;;;;;;;;;;5015586;28;20062;-67
2024/03/30 02:06:08;;;;;;;0.93;0.77;;;;;;;;;;5020951;28;20041;-68
2024/03/30 02:08:35;;;;;;;0.80;0.70;;;;;;;;;;5022334;28;20033;-67
2024/03/30 02:11:02;;;;;;;1.33;0.70;;;;;;;;;;5014241;28;20056;-67
2024/03/30 02:13:29;;;;;;;1.52;0.77;;;;;;;;;;5018439;28;20034;-68
2024/03/30 02:15:54;;;;;;;1.73;0.93;;;;;;;;;;5021858;28;20088;-67
2024/03/30 02:18:20;;;;;;;1.55;1.00;;;;;;;;;;5022052;28;20038;-67
2024/03/30 02:20:46;;;;;;;0.95;0.80;;;;;;;;;;5016937;28;20462;-67
2024/03/30 02:23:16;;;;;;;0.88;0.60;;;;;;;;;;5018629;28;20347;-67
2024/03/30 02:25:42;;;;;;;0.98;0.80;;;;;;;;;;5017048;28;20442;-67
2024/03/30 02:28:08;;;;;;;1.20;0.85;;;;;;;;;;5013522;28;20338;-67
2024/03/30 02:30:34;;;;;;;0.60;0.60;;;;;;;;;;5017681;28;20033;-66
2024/03/30 02:33:00;;;;;;;0.70;0.70;;;;;;;;;;5015358;28;20121;-66
2024/03/30 02:35:27;;;;;;;1.65;0.98;;;;;;;;;;5014468;28;20124;-67
2024/03/30 02:37:53;;;;;;;0.95;0.75;;;;;;;;;;5018126;28;20081;-67
2024/03/30 02:40:19;;;;;;;1.17;0.90;;;;;;;;;;5014816;28;20029;-67
2024/03/30 02:42:45;;;;;;;0.88;0.80;;;;;;;;;;5018267;28;20029;-66
2024/03/30 02:45:11;;;;;;;1.30;0.90;;;;;;;;;;5013236;28;20668;-67
2024/03/30 02:47:37;;;;;;;1.67;0.70;;;;;;;;;;5017029;28;20534;-66
2024/03/30 02:50:03;;;;;;;2.08;1.00;;;;;;;;;;5023219;28;20074;-67
2024/03/30 02:52:29;;;;;;;2.03;1.13;;;;;;;;;;5024298;28;20085;-67
2024/03/30 02:54:55;;;;;;;1.63;1.02;;;;;;;;;;5012303;28;20308;-67
2024/03/30 02:57:21;;;;;;;1.40;0.90;;;;;;;;;;5017539;28;20305;-67
2024/03/30 02:59:47;;;;;;;1.33;0.93;;;;;;;;;;5018883;28;20057;-67
2024/03/30 03:02:13;;;;;;;1.73;0.73;;;;;;;;;;5015348;28;20062;-67
2024/03/30 03:04:39;;;;;;;2.38;0.95;;;;;;;;;;5024025;28;20111;-67
2024/03/30 03:07:06;;;;;;;2.13;1.02;;;;;;;;;;5025061;28;20086;-67
2024/03/30 03:09:32;;;;;;;1.83;1.10;;;;;;;;;;5014857;28;20049;-67
2024/03/30 03:11:58;;;;;;;4.07;1.23;;;;;;;;;;5019286;28;20517;-67
2024/03/30 03:14:24;;;;;;;1.45;1.00;;;;;;;;;;5013982;28;20132;-67
2024/03/30 03:16:50;;;;;;;1.35;0.90;;;;;;;;;;5011089;28;20128;-67
2024/03/30 03:19:16;;;;;;;1.05;0.73;;;;;;;;;;5024119;28;20028;-66
2024/03/30 03:21:42;;;;;;;1.20;0.70;;;;;;;;;;5014163;28;20189;-67
2024/03/30 03:24:07;;;;;;;1.67;0.93;;;;;;;;;;5019901;28;20156;-68
2024/03/30 03:26:33;;;;;;;1.05;0.90;;;;;;;;;;5008769;28;20041;-67
2024/03/30 03:28:59;;;;;;;1.27;0.90;;;;;;;;;;5011054;28;20069;-66
2024/03/30 03:31:25;;;;;;;1.23;0.90;;;;;;;;;;5011735;28;20112;-66
2024/03/30 03:33:51;;;;;;;0.82;0.80;;;;;;;;;;5011153;28;20140;-67
2024/03/30 03:36:17;;;;;;;1.38;0.93;;;;;;;;;;5021996;28;20029;-67
2024/03/30 03:38:43;;;;;;;2.35;0.85;;;;;;;;;;5010630;28;20439;-67
2024/03/30 03:41:09;;;;;;;1.45;0.80;;;;;;;;;;5010749;28;20085;-67
2024/03/30 03:43:40;;;;;;;1.55;0.90;;;;;;;;;;5014424;28;20088;-67
2024/03/30 03:46:06;;;;;;;;;;;;;;;;;;5012841;28;20030;-67
2024/03/30 03:48:32;;;;;;;2.83;0.98;;;;;;;;;;5012342;28;19991;-67
2024/03/30 03:50:58;;;;;;;1.83;1.10;;;;;;;;;;5014416;28;20117;-68
2024/03/30 03:53:24;;;;;;;1.38;1.00;;;;;;;;;;5012285;28;20382;-68
2024/03/30 03:55:49;;;;;;;1.30;0.82;;;;;;;;;;5013362;28;20045;-67
2024/03/30 03:58:15;;;;;;;1.35;0.90;;;;;;;;;;5009320;28;20095;-67
2024/03/30 04:00:41;;;;;;;1.17;0.93;;;;;;;;;;5011386;28;20030;-68
2024/03/30 04:03:09;;;;;;;2.13;1.10;;;;;;;;;;5006833;28;20073;-68
2024/03/30 04:05:34;;;;;;;2.67;1.20;;;;;;;;;;5014127;28;20072;-67
2024/03/30 04:08:00;;;;;;;1.65;0.98;;;;;;;;;;5004546;28;20463;-67
2024/03/30 04:10:26;;;;;;;1.52;0.93;;;;;;;;;;5018179;28;20063;-69
2024/03/30 04:12:52;;;;;;;1.92;0.80;;;;;;;;;;5011675;28;20430;-67
2024/03/30 04:15:18;;;;;;;1.60;1.02;;;;;;;;;;5014125;28;20443;-67
2024/03/30 04:17:44;;;;;;;0.85;0.80;;;;;;;;;;5009025;28;20036;-67
2024/03/30 04:20:10;;;;;;;1.50;1.08;;;;;;;;;;5013575;28;20505;-67
2024/03/30 04:22:36;;;;;;;1.58;1.00;;;;;;;;;;5019293;28;20129;-67
2024/03/30 04:25:02;;;;;;;1.88;0.90;;;;;;;;;;5016312;28;20369;-67
2024/03/30 04:27:28;;;;;;;2.03;0.88;;;;;;;;;;5014469;28;20116;-67
2024/03/30 04:29:54;;;;;;;0.77;0.77;;;;;;;;;;5013385;28;20045;-65
2024/03/30 04:32:20;;;;;;;1.17;0.70;;;;;;;;;;5010452;28;20122;-66
2024/03/30 04:34:46;;;;;;;1.27;0.88;;;;;;;;;;5015473;28;20033;-65
2024/03/30 04:37:12;;;;;;;1.20;0.80;;;;;;;;;;5013412;28;20069;-66
2024/03/30 04:39:38;;;;;;;1.35;0.90;;;;;;;;;;5014616;28;20194;-65
2024/03/30 04:42:04;;;;;;;1.30;0.88;;;;;;;;;;5008881;28;20029;-66
2024/03/30 04:44:30;;;;;;;0.85;0.70;;;;;;;;;;5015464;28;20056;-66
2024/03/30 04:46:57;;;;;;;2.05;0.88;;;;;;;;;;5013907;28;20446;-66
2024/03/30 04:49:23;;;;;;;3.13;1.20;;;;;;;;;;5018335;28;20041;-66
2024/03/30 04:51:49;;;;;;;0.90;0.70;;;;;;;;;;5011750;28;20040;-66
2024/03/30 04:54:15;;;;;;;1.60;0.90;;;;;;;;;;5008809;28;20758;-66
2024/03/30 04:56:40;;;;;;;1.35;0.90;;;;;;;;;;5016724;28;20040;-65
2024/03/30 04:59:06;;;;;;;1.75;0.95;;;;;;;;;;5012355;28;20041;-65
2024/03/30 05:01:32;;;;;;;3.38;1.02;;;;;;;;;;5011872;28;20060;-66
2024/03/30 05:03:58;;;;;;;1.33;0.68;;;;;;;;;;5015218;28;20061;-65
2024/03/30 05:06:25;;;;;;;0.80;0.68;;;;;;;;;;5017882;28;20041;-66
2024/03/30 05:08:51;;;;;;;1.17;0.80;;;;;;;;;;5015201;28;20041;-68
2024/03/30 05:11:17;;;;;;;0.75;0.55;;;;;;;;;;5010731;28;20038;-65
2024/03/30 05:13:43;;;;;;;0.93;0.85;;;;;;;;;;5019242;28;20253;-66
2024/03/30 05:16:09;;;;;;;1.00;0.85;;;;;;;;;;5014047;28;20404;-66
2024/03/30 05:18:35;;;;;;;0.52;0.50;;;;;;;;;;5012043;28;20030;-66
2024/03/30 05:21:02;;;;;;;0.93;0.75;;;;;;;;;;5011862;28;20112;-65
2024/03/30 05:23:34;;;;;;;2.78;1.05;;;;;;;;;;5011228;28;20037;-66
2024/03/30 05:26:02;;;;;;;1.33;0.70;;;;;;;;;;5017087;28;20033;-67
2024/03/30 05:28:28;;;;;;;0.80;0.60;;;;;;;;;;5012788;28;20097;-65
2024/03/30 05:30:55;;;;;;;0.93;0.68;;;;;;;;;;5014660;28;20116;-66
2024/03/30 05:33:21;;;;;;;1.17;0.80;;;;;;;;;;5013867;28;20609;-66
2024/03/30 05:35:47;;;;;;;1.27;0.88;;;;;;;;;;5017206;28;20026;-66
2024/03/30 05:38:14;;;;;;;0.80;0.80;;;;;;;;;;5014478;28;20042;-66
2024/03/30 05:40:40;;;;;;;1.27;0.77;;;;;;;;;;5014989;28;20030;-66
2024/03/30 05:43:06;;;;;;;0.70;0.60;;;;;;;;;;5011997;28;20102;-66
2024/03/30 05:45:32;;;;;;;1.52;0.80;;;;;;;;;;5017885;28;20044;-66
2024/03/30 05:47:59;;;;;;;1.45;0.77;;;;;;;;;;5019338;28;20056;-66
2024/03/30 05:50:26;;;;;;;1.08;0.82;;;;;;;;;;5019803;28;20089;-66
2024/03/30 05:52:52;;;;;;;0.75;0.70;;;;;;;;;;5015377;28;20056;-66
2024/03/30 05:55:18;;;;;;;0.70;0.60;;;;;;;;;;5020935;28;20133;-65
2024/03/30 05:57:44;;;;;;;1.05;0.70;;;;;;;;;;5014627;28;20338;-66
2024/03/30 06:00:11;;;;;;;1.98;1.02;;;;;;;;;;5024659;28;20036;-66
2024/03/30 06:02:40;;;;;;;0.95;0.88;;;;;;;;;;5015916;28;20057;-66
2024/03/30 06:05:06;;;;;;;1.83;0.88;;;;;;;;;;5020934;28;20029;-67
2024/03/30 06:07:32;;;;;;;0.80;0.70;;;;;;;;;;5019307;28;20516;-65
2024/03/30 06:09:58;;;;;;;1.88;1.05;;;;;;;;;;5022270;28;20073;-65
2024/03/30 06:12:24;;;;;;;1.13;0.95;;;;;;;;;;5014866;28;20041;-66
2024/03/30 06:14:51;;;;;;;0.75;0.75;;;;;;;;;;5020393;28;20043;-66
2024/03/30 06:17:17;;;;;;;1.50;1.00;;;;;;;;;;5018790;28;20420;-65
2024/03/30 06:19:43;;;;;;;0.88;0.77;;;;;;;;;;5018114;28;20044;-65
2024/03/30 06:22:09;;;;;;;1.70;0.68;;;;;;;;;;5017459;28;20036;-65
2024/03/30 06:24:39;;;;;;;2.33;1.02;;;;;;;;;;5020405;28;20112;-66
2024/03/30 06:27:06;;;;;;;1.13;0.80;;;;;;;;;;5013893;28;20033;-66
2024/03/30 06:29:32;;;;;;;1.35;0.80;;;;;;;;;;5018039;28;20119;-66
2024/03/30 06:31:58;;;;;;;2.40;1.38;;;;;;;;;;5019545;28;20113;-65
2024/03/30 06:34:24;;;;;;;1.50;0.95;;;;;;;;;;5021321;28;20378;-66
2024/03/30 06:36:50;;;;;;;1.10;0.90;;;;;;;;;;5013262;28;20571;-67
2024/03/30 06:39:16;;;;;;;1.45;0.80;;;;;;;;;;5034119;28;20025;-67
2024/03/30 06:44:27;;;;;;;1.70;0.80;;;;;;;;;;5015163;28;20044;-66
2024/03/30 06:46:53;;;;;;;0.98;0.60;;;;;;;;;;5020430;28;20034;-66
2024/03/30 06:49:19;;;;;;;1.38;0.80;;;;;;;;;;5014899;28;20454;-66
2024/03/30 06:51:46;;;;;;;2.38;1.00;;;;;;;;;;5023604;28;20021;-65
2024/03/30 06:54:13;;;;;;;1.33;0.90;;;;;;;;;;5010709;28;20682;-66
2024/03/30 06:56:39;;;;;;;0.88;0.65;;;;;;;;;;5008596;28;20100;-65
2024/03/30 06:59:05;;;;;;;1.33;0.68;;;;;;;;;;5011696;28;20116;-66
2024/03/30 07:01:31;;;;;;;2.53;0.63;;;;;;;;;;5015129;28;20116;-66
2024/03/30 07:03:58;;;;;;;0.93;0.70;;;;;;;;;;5011971;28;20423;-67
2024/03/30 07:06:23;;;;;;;1.02;0.60;;;;;;;;;;5020073;28;20390;-67
2024/03/30 07:08:51;;;;;;;1.77;0.65;;;;;;;;;;5020331;28;20030;-67
2024/03/30 07:11:19;;;;;;;0.77;0.60;;;;;;;;;;5014039;28;20079;-66
2024/03/30 07:13:45;;;;;;;0.40;0.40;;;;;;;;;;5011789;28;20020;-66
2024/03/30 07:16:11;;;;;;;2.22;0.60;;;;;;;;;;5013704;28;20038;-66
2024/03/30 07:18:36;;;;;;;0.77;0.50;;;;;;;;;;5023592;28;20045;-66
2024/03/30 07:21:03;;;;;;;0.60;0.35;;;;;;;;;;5015135;28;20021;-65
2024/03/30 07:23:29;;;;;;;0.40;0.30;;;;;;;;;;5019996;28;20121;-66
2024/03/30 07:25:55;;;;;;;0.75;0.50;;;;;;;;;;5017674;28;20485;-66
2024/03/30 07:28:22;;;;;;;0.73;0.40;;;;;;;;;;5010810;28;20045;-66
2024/03/30 07:30:53;;;;;;;2.55;0.60;;;;;;;;;;5016868;28;20025;-66
2024/03/30 07:33:19;;;;;;;2.65;0.50;;;;;;;;;;5026341;28;20021;-65
2024/03/30 07:35:53;;;;;;;1.58;0.70;;;;;;;;;;5015158;28;20125;-67
2024/03/30 07:38:23;;;;;;;2.30;1.02;;;;;;;;;;5015259;28;20384;-66
2024/03/30 07:40:48;;;;;;;0.40;0.40;;;;;;;;;;5014502;28;20056;-65
2024/03/30 07:43:14;;;;;;;0.77;0.50;;;;;;;;;;5013785;28;20071;-68
2024/03/30 07:45:40;;;;;;;1.08;0.50;;;;;;;;;;5012347;28;20029;-65
2024/03/30 07:48:06;;;;;;;1.17;0.63;;;;;;;;;;5016211;28;20492;-67
2024/03/30 07:50:32;;;;;;;1.02;0.50;;;;;;;;;;5011166;28;20343;-65
2024/03/30 07:52:58;;;;;;;1.48;0.50;;;;;;;;;;5016984;28;20040;-66
2024/03/30 07:55:24;;;;;;;0.95;0.55;;;;;;;;;;5015216;28;20034;-66
2024/03/30 07:57:50;;;;;;;1.65;0.70;;;;;;;;;;5014381;28;20609;-65
2024/03/30 08:00:16;;;;;;;1.55;0.60;;;;;;;;;;5013768;28;20099;-66
2024/03/30 08:02:42;;;;;;;0.70;0.55;;;;;;;;;;5019720;28;20134;-65
2024/03/30 08:05:08;;;;;;;0.75;0.57;;;;;;;;;;5012375;28;20018;-65
2024/03/30 08:07:34;;;;;;;0.60;0.55;;;;;;;;;;5013788;28;20183;-65
2024/03/30 08:10:00;;;;;;;0.35;0.32;;;;;;;;;;5011744;28;20112;-66
2024/03/30 08:12:26;;;;;;;1.15;0.70;;;;;;;;;;5010485;28;20026;-65
2024/03/30 08:14:51;;;;;;;1.15;0.50;;;;;;;;;;5013333;28;20029;-66
2024/03/30 08:17:18;;;;;;;0.75;0.75;;;;;;;;;;5011210;28;20051;-65
2024/03/30 08:19:44;;;;;;;0.65;0.55;;;;;;;;;;5013955;28;20435;-65
2024/03/30 08:22:10;;;;;;;0.40;0.40;;;;;;;;;;5012311;28;20029;-65
2024/03/30 08:24:36;;;;;;;0.90;0.50;;;;;;;;;;5020619;28;20033;-66
2024/03/30 08:27:04;;;;;;;2.55;0.85;;;;;;;;;;5018194;28;20113;-66
2024/03/30 08:29:30;;;;;;;1.23;0.55;;;;;;;;;;5019383;28;20029;-65
2024/03/30 08:31:56;;;;;;;1.25;0.30;;;;;;;;;;5023344;28;20084;-65
2024/03/30 08:34:22;;;;;;;0.73;0.40;;;;;;;;;;5021037;28;20041;-66
2024/03/30 08:36:48;;;;;;;0.82;0.43;;;;;;;;;;5017756;28;20095;-65
2024/03/30 08:39:13;;;;;;;1.63;0.60;;;;;;;;;;5019162;28;20133;-65
2024/03/30 08:41:39;;;;;;;1.20;0.60;;;;;;;;;;5020984;28;20033;-66
2024/03/30 08:44:05;;;;;;;0.63;0.30;;;;;;;;;;5023917;28;20064;-66
2024/03/30 08:46:31;;;;;;;0.35;0.30;;;;;;;;;;5019367;28;20478;-67
2024/03/30 08:49:04;;;;;;;0.70;0.60;;;;;;;;;;5020550;28;20072;-66
2024/03/30 08:51:30;;;;;;;0.65;0.35;;;;;;;;;;5021699;28;20051;-66
2024/03/30 08:54:03;;;;;;;1.65;0.40;;;;;;;;;;5021427;28;20489;-66
2024/03/30 08:56:29;;;;;;;0.40;0.30;;;;;;;;;;5019877;28;20037;-67
2024/03/30 08:58:55;;;;;;;0.60;0.30;;;;;;;;;;5021846;28;20025;-65
2024/03/30 09:01:21;;;;;;;0.47;0.30;;;;;;;;;;5017495;28;20156;-66
2024/03/30 09:03:47;;;;;;;0.70;0.25;;;;;;;;;;5024853;28;20474;-65
2024/03/30 09:06:13;;;;;;;1.27;0.50;;;;;;;;;;5020333;28;20059;-67
2024/03/30 09:08:40;;;;;;;1.88;0.50;;;;;;;;;;5019371;28;20075;-65
2024/03/30 09:11:06;;;;;;;0.38;0.20;;;;;;;;;;5016905;28;20018;-66
2024/03/30 09:13:31;;;;;;;1.00;0.50;;;;;;;;;;5019846;28;20029;-66
2024/03/30 09:15:57;;;;;;;0.47;0.22;;;;;;;;;;5019714;28;20493;-65
2024/03/30 09:18:23;;;;;;;1.10;0.40;;;;;;;;;;5023576;28;20378;-66
2024/03/30 09:20:50;;;;;;;0.50;0.30;;;;;;;;;;5015645;28;20087;-65
2024/03/30 09:23:16;;;;;;;0.47;0.30;;;;;;;;;;5018843;28;20140;-66
2024/03/30 09:25:42;;;;;;;2.00;0.50;;;;;;;;;;5020683;28;20041;-65
2024/03/30 09:28:08;;;;;;;0.40;0.30;;;;;;;;;;5015154;28;20117;-65
2024/03/30 09:30:34;;;;;;;1.52;0.40;;;;;;;;;;5023792;28;20049;-67
2024/03/30 09:33:00;;;;;;;1.70;0.50;;;;;;;;;;5020527;28;20021;-66
2024/03/30 09:35:26;;;;;;;0.75;0.40;;;;;;;;;;5015162;28;20478;-66
2024/03/30 09:37:52;;;;;;;1.02;0.40;;;;;;;;;;5017591;28;20060;-65
2024/03/30 09:40:18;;;;;;;1.08;0.68;;;;;;;;;;5021530;28;20030;-66
2024/03/30 09:42:45;;;;;;;1.20;0.40;;;;;;;;;;5019368;28;20025;-66
2024/03/30 09:45:12;;;;;;;1.13;0.40;;;;;;;;;;5018669;28;20069;-66
2024/03/30 09:47:42;;;;;;;0.52;0.50;;;;;;;;;;5015205;28;20163;-66
2024/03/30 09:50:08;;;;;;;0.88;0.32;;;;;;;;;;5023200;28;20034;-65
2024/03/30 09:52:38;;;;;;;0.30;0.30;;;;;;;;;;5013197;28;20026;-65
2024/03/30 09:55:09;;;;;;;1.35;0.55;;;;;;;;;;5014676;28;20033;-65
2024/03/30 09:57:35;;;;;;;1.17;0.53;;;;;;;;;;5017388;28;20025;-65
2024/03/30 10:00:03;;;;;;;1.95;0.40;;;;;;;;;;5018913;28;20087;-67
2024/03/30 10:02:29;;;;;;;0.55;0.40;;;;;;;;;;5014258;28;20053;-66
2024/03/30 10:04:56;;;;;;;1.67;0.50;;;;;;;;;;5019481;28;20022;-65
2024/03/30 10:07:28;;;;;;;2.92;1.00;;;;;;;;;;5018554;28;20037;-66
2024/03/30 10:09:59;;;;;;;0.90;0.43;;;;;;;;;;5018226;28;20092;-66
2024/03/30 10:12:25;;;;;;;;;;;;;;;;;;5016141;28;20324;-65
2024/03/30 10:14:53;;;;;;;2.75;0.38;;;;;;;;;;5022832;28;19916;-67
2024/03/30 10:17:19;;;;;;;2.05;0.38;;;;;;;;;;5019082;28;20443;-66
2024/03/30 10:19:46;;;;;;;4.65;0.85;;;;;;;;;;5016185;28;20032;-66
2024/03/30 10:22:12;;;;;;;1.75;0.50;;;;;;;;;;5027422;28;20458;-67
2024/03/30 10:24:38;;;;;;;1.05;0.57;;;;;;;;;;5019170;28;20044;-67
2024/03/30 10:27:04;;;;;;;2.55;0.63;;;;;;;;;;5020449;28;20033;-66
2024/03/30 10:29:29;;;;;;;1.83;0.57;;;;;;;;;;5025873;28;20029;-66
2024/03/30 10:31:55;;;;;;;2.05;0.57;;;;;;;;;;5027209;28;20093;-65
2024/03/30 10:34:21;;;;;;;2.70;0.70;;;;;;;;;;5022051;28;20104;-66
2024/03/30 10:36:48;;;;;;;3.17;0.70;;;;;;;;;;5023340;28;20025;-66
2024/03/30 10:39:19;;;;;;;2.67;0.65;;;;;;;;;;5022778;28;20021;-67
2024/03/30 10:41:45;;;;;;;2.60;0.73;;;;;;;;;;5019634;28;20117;-66
2024/03/30 10:44:11;;;;;;;2.25;0.63;;;;;;;;;;5025568;28;20199;-67
2024/03/30 10:46:37;;;;;;;0.95;0.30;;;;;;;;;;5025926;28;20139;-66
2024/03/30 10:49:03;;;;;;;2.47;0.82;;;;;;;;;;5021954;28;20056;-66
2024/03/30 10:51:29;;;;;;;2.25;0.68;;;;;;;;;;5026169;28;20106;-66
2024/03/30 10:54:03;;;;;;;2.50;0.60;;;;;;;;;;5022911;28;20045;-67
2024/03/30 10:56:29;;;;;;;2.58;0.75;;;;;;;;;;5023025;28;20108;-66
2024/03/30 10:58:58;;;;;;;4.18;0.35;;;;;;;;;;5025680;28;20116;-66
2024/03/30 11:01:24;;;;;;;2.03;0.73;;;;;;;;;;5024919;28;20029;-66
2024/03/30 11:03:51;;;;;;;4.28;1.15;;;;;;;;;;5024682;28;20446;-66
2024/03/30 11:06:16;;;;;;;4.88;0.90;;;;;;;;;;5014736;28;20117;-66
2024/03/30 11:08:43;;;;;;;3.13;0.43;;;;;;;;;;5013051;28;20351;-66
2024/03/30 11:11:09;;;;;;;3.72;1.15;;;;;;;;;;5011928;28;20034;-66
2024/03/30 11:13:35;;;;;;;3.85;0.85;;;;;;;;;;5010071;28;20352;-66
2024/03/30 11:16:02;;;;;;;2.88;1.08;;;;;;;;;;5015893;28;20033;-66
2024/03/30 11:18:34;;;;;;;4.95;0.95;;;;;;;;;;5016969;28;20026;-67
2024/03/30 11:21:08;;;;;;;2.15;0.73;;;;;;;;;;5015187;28;20369;-66
2024/03/30 11:23:41;;;;;;;3.13;0.70;;;;;;;;;;5015807;28;20017;-65
2024/03/30 11:26:10;;;;;;;4.40;0.65;;;;;;;;;;5008654;28;20148;-67
2024/03/30 11:28:48;;;;;;;4.72;0.88;;;;;;;;;;5009809;28;20074;-65
2024/03/30 11:31:21;;;;;;;1.42;0.50;;;;;;;;;;5012463;28;20084;-66
2024/03/30 11:34:07;;;;;;;3.47;0.60;;;;;;;;;;5010714;28;20081;-66
2024/03/30 11:36:45;;;;;;;3.00;0.68;;;;;;;;;;5015149;28;20034;-66
2024/03/30 11:39:27;;;;;;;2.95;0.70;;;;;;;;;;5007952;28;20026;-66
2024/03/30 11:41:55;;;;;;;4.30;0.60;;;;;;;;;;5018004;28;20162;-66
2024/03/30 11:44:23;;;;;;;3.55;0.60;;;;;;;;;;5014575;28;20494;-67
2024/03/30 11:46:49;;;;;;;6.68;0.80;;;;;;;;;;5010657;28;20433;-66
2024/03/30 11:49:18;;;;;;;2.30;0.65;;;;;;;;;;5016412;28;20033;-66
2024/03/30 11:51:44;;;;;;;3.92;1.10;;;;;;;;;;5010254;28;20407;-66
2024/03/30 11:54:20;;;;;;;2.28;0.73;;;;;;;;;;5015431;28;20513;-66
2024/03/30 11:57:04;;;;;;;4.38;1.15;;;;;;;;;;5014796;28;20497;-65
2024/03/30 11:59:35;;;;;;;4.78;0.95;;;;;;;;;;5014082;28;20144;-66
2024/03/30 12:02:02;;;;;;;4.18;1.17;;;;;;;;;;5011750;28;20045;-66
2024/03/30 12:04:28;;;;;;;6.07;1.23;;;;;;;;;;5012549;28;20029;-66
2024/03/30 12:06:56;;;;;;;1.65;0.52;;;;;;;;;;5016043;28;20614;-66
2024/03/30 12:09:21;;;;;;;8.90;1.23;;;;;;;;;;5016642;28;20484;-66
2024/03/30 12:11:53;;;;;;;4.90;1.05;;;;;;;;;;5014408;28;20328;-65
2024/03/30 12:14:19;;;;;;;1.75;0.40;;;;;;;;;;5011476;28;20112;-66
2024/03/30 12:16:45;;;;;;;2.70;0.43;;;;;;;;;;5012844;28;20033;-66
2024/03/30 12:19:11;;;;;;;5.60;1.08;;;;;;;;;;5011864;28;20041;-67
2024/03/30 12:21:39;;;;;;;1.30;0.60;;;;;;;;;;5012589;28;20038;-66
2024/03/30 12:24:06;;;;;;;4.97;1.13;;;;;;;;;;5019375;28;20056;-66
2024/03/30 12:26:32;;;;;;;3.83;0.82;;;;;;;;;;5012762;28;20127;-66
2024/03/30 12:29:02;;;;;;;3.40;0.85;;;;;;;;;;5025129;28;20102;-65
2024/03/30 12:31:31;;;;;;;5.00;0.90;;;;;;;;;;5013165;28;20645;-67
2024/03/30 12:33:57;;;;;;;3.65;0.75;;;;;;;;;;5020027;28;20022;-68
2024/03/30 12:36:22;;;;;;;2.58;0.90;;;;;;;;;;5010457;28;20026;-65
2024/03/30 12:38:48;;;;;;;1.65;0.63;;;;;;;;;;5012826;28;20025;-66
2024/03/30 12:41:14;;;;;;;1.92;0.52;;;;;;;;;;5014200;28;20040;-66
2024/03/30 12:43:40;;;;;;;2.30;0.57;;;;;;;;;;5012235;28;20124;-66
2024/03/30 12:46:06;;;;;;;1.85;0.60;;;;;;;;;;5011382;28;20021;-66
2024/03/30 12:48:32;;;;;;;2.88;0.80;;;;;;;;;;5012938;28;20041;-66
2024/03/30 12:50:58;;;;;;;3.15;0.77;;;;;;;;;;5019741;28;20034;-66
2024/03/30 12:53:24;;;;;;;1.85;1.05;;;;;;;;;;5016945;28;20427;-65
2024/03/30 12:55:50;;;;;;;3.78;0.75;;;;;;;;;;5013277;28;20575;-66
2024/03/30 12:58:16;;;;;;;1.80;0.50;;;;;;;;;;5017769;28;20029;-66
2024/03/30 13:00:41;;;;;;;3.10;0.70;;;;;;;;;;5022982;28;20074;-66
2024/03/30 13:03:10;;;;;;;6.80;0.80;;;;;;;;;;5024325;28;20332;-66
2024/03/30 13:05:37;;;;;;;4.03;0.77;;;;;;;;;;5020825;28;20337;-66
2024/03/30 13:08:10;;;;;;;5.45;0.88;;;;;;;;;;5011265;28;20686;-66
2024/03/30 13:10:40;;;;;;;4.13;0.82;;;;;;;;;;5018283;28;20036;-67
2024/03/30 13:13:07;;;;;;;2.13;0.75;;;;;;;;;;5022159;28;20017;-65
2024/03/30 13:15:34;;;;;;;1.45;0.75;;;;;;;;;;5014118;28;20140;-66
2024/03/30 13:18:09;;;;;;;3.95;0.80;;;;;;;;;;5017886;28;20098;-66
2024/03/30 13:20:39;;;;;;;2.92;0.60;;;;;;;;;;5017193;28;20127;-66
2024/03/30 13:23:05;;;;;;;7.22;1.15;;;;;;;;;;5019801;28;20176;-66
2024/03/30 13:25:31;;;;;;;3.65;0.80;;;;;;;;;;5016305;28;20160;-66
2024/03/30 13:27:57;;;;;;;3.00;0.88;;;;;;;;;;5013172;28;20105;-66
2024/03/30 13:30:23;;;;;;;3.15;1.25;;;;;;;;;;5019801;28;20064;-67
2024/03/30 13:32:49;;;;;;;5.13;1.00;;;;;;;;;;5018383;28;20211;-66
2024/03/30 13:35:15;;;;;;;5.30;1.00;;;;;;;;;;5015131;28;20128;-66
2024/03/30 13:37:44;;;;;;;3.70;1.05;;;;;;;;;;5020278;28;20039;-66
2024/03/30 13:40:10;;;;;;;1.67;0.60;;;;;;;;;;5020587;28;20025;-66
2024/03/30 13:42:36;;;;;;;5.47;1.13;;;;;;;;;;5009958;28;20327;-66
2024/03/30 13:45:02;;;;;;;4.65;1.55;;;;;;;;;;5018338;28;20026;-66
2024/03/30 13:47:28;;;;;;;3.75;1.13;;;;;;;;;;5014440;28;20045;-66
2024/03/30 13:49:54;;;;;;;4.30;1.00;;;;;;;;;;5014851;28;20018;-66
2024/03/30 13:52:20;;;;;;;4.32;1.25;;;;;;;;;;5016735;28;20038;-67
2024/03/30 13:54:46;;;;;;;7.30;1.35;;;;;;;;;;5014224;28;20463;-66
2024/03/30 13:57:15;;;;;;;6.35;1.25;;;;;;;;;;5010234;28;20038;-66
2024/03/30 13:59:41;;;;;;;3.65;1.17;;;;;;;;;;5023869;28;20049;-67
2024/03/30 14:02:08;;;;;;;6.18;0.68;;;;;;;;;;5015958;28;20049;-66
2024/03/30 14:04:34;;;;;;;3.53;0.88;;;;;;;;;;5013320;28;20077;-66
2024/03/30 14:07:00;;;;;;;3.58;0.93;;;;;;;;;;5015929;28;20044;-65
2024/03/30 14:09:26;;;;;;;2.72;0.80;;;;;;;;;;4997228;28;20057;-65
2024/03/30 14:11:51;;;;;;;5.38;0.98;;;;;;;;;;5016261;28;20044;-66
2024/03/30 14:14:17;;;;;;;7.55;1.05;;;;;;;;;;5013248;28;20030;-65
2024/03/30 14:16:43;;;;;;;4.35;1.25;;;;;;;;;;5012834;28;20125;-65
2024/03/30 14:19:09;;;;;;;9.90;1.17;;;;;;;;;;5013955;28;20312;-65
2024/03/30 14:21:35;;;;;;;4.93;1.48;;;;;;;;;;5015747;28;20050;-66
2024/03/30 14:24:01;;;;;;;2.97;1.02;;;;;;;;;;5022411;28;20091;-66
2024/03/30 14:26:29;;;;;;;5.03;1.33;;;;;;;;;;5015119;28;20117;-65
2024/03/30 14:28:55;;;;;;;5.90;1.00;;;;;;;;;;5016771;28;20013;-67
2024/03/30 14:31:20;;;;;;;3.13;0.77;;;;;;;;;;5014759;28;20107;-65
2024/03/30 14:33:46;;;;;;;6.43;1.08;;;;;;;;;;5018074;28;20041;-65
2024/03/30 14:36:15;;;;;;;7.15;1.38;;;;;;;;;;5026251;28;20032;-65
2024/03/30 14:38:42;;;;;;;4.85;1.10;;;;;;;;;;5007026;28;20362;-65
2024/03/30 14:41:09;;;;;;;2.70;1.10;;;;;;;;;;5015430;28;20021;-66
2024/03/30 14:43:36;;;;;;;8.27;1.25;;;;;;;;;;5007378;28;20038;-65